Time;durP1;ratioP1;P1;durP2;ratioP2;P2;SDS_P1;SDS_P2;PMS_P1;PMS_P2;Temp;Humidity;BMP_temperature;BMP_pressure;BME280_temperature;BME280_humidity;BME280_pressure;Samples;Min_cycle;Max_cycle;Signal;HPM_P1;HPM_P2
2022/09/20 00:00:34;;;;;;;9.05;1.42;;;;;;;;;;5071732;28;20036;-60
2022/09/20 00:03:00;;;;;;;7.68;1.67;;;;;;;;;;5071159;28;20040;-60
2022/09/20 00:05:26;;;;;;;12.73;1.30;;;;;;;;;;5071553;28;20049;-60
2022/09/20 00:07:52;;;;;;;12.50;1.65;;;;;;;;;;5070979;28;20109;-60
2022/09/20 00:10:18;;;;;;;8.43;1.73;;;;;;;;;;5070897;28;20049;-61
2022/09/20 00:12:44;;;;;;;8.40;1.50;;;;;;;;;;5071528;28;20048;-60
2022/09/20 00:15:10;;;;;;;11.82;1.77;;;;;;;;;;5071377;28;20532;-61
2022/09/20 00:17:36;;;;;;;4.75;1.10;;;;;;;;;;5071005;28;20040;-61
2022/09/20 00:20:02;;;;;;;11.13;1.50;;;;;;;;;;5069991;28;20128;-60
2022/09/20 00:22:29;;;;;;;8.07;1.42;;;;;;;;;;5071361;28;20036;-60
2022/09/20 00:24:55;;;;;;;10.35;1.60;;;;;;;;;;5070875;28;20414;-60
2022/09/20 00:27:21;;;;;;;9.20;1.35;;;;;;;;;;5050513;28;20127;-60
2022/09/20 00:29:47;;;;;;;10.25;1.20;;;;;;;;;;5051284;28;20077;-60
2022/09/20 00:32:13;;;;;;;3.97;1.00;;;;;;;;;;5050792;28;20044;-60
2022/09/20 00:37:24;;;;;;;10.93;1.52;;;;;;;;;;5051136;28;20040;-60
2022/09/20 00:39:50;;;;;;;13.75;1.58;;;;;;;;;;5050848;28;20462;-60
2022/09/20 00:42:16;;;;;;;11.18;2.50;;;;;;;;;;5051126;28;20069;-60
2022/09/20 00:44:46;;;;;;;9.13;1.20;;;;;;;;;;5051059;28;20041;-60
2022/09/20 00:47:25;;;;;;;10.57;1.33;;;;;;;;;;5050608;28;20679;-60
2022/09/20 00:49:53;;;;;;;7.85;1.50;;;;;;;;;;5051052;28;20399;-60
2022/09/20 00:52:19;;;;;;;10.73;1.48;;;;;;;;;;5050966;28;20467;-60
2022/09/20 00:54:46;;;;;;;10.27;1.60;;;;;;;;;;5050172;28;20044;-60
2022/09/20 00:57:12;;;;;;;12.18;1.35;;;;;;;;;;5050658;28;20041;-60
2022/09/20 00:59:39;;;;;;;7.00;1.42;;;;;;;;;;5050885;28;20087;-60
2022/09/20 01:02:13;;;;;;;7.75;1.75;;;;;;;;;;5050447;28;20170;-60
2022/09/20 01:04:41;;;;;;;8.98;2.17;;;;;;;;;;5065095;28;20079;-60
2022/09/20 01:07:08;;;;;;;12.75;1.65;;;;;;;;;;5070294;28;20056;-60
2022/09/20 01:09:34;;;;;;;8.38;1.50;;;;;;;;;;5070124;28;20189;-60
2022/09/20 01:12:03;;;;;;;15.57;1.50;;;;;;;;;;5070343;28;20045;-60
2022/09/20 01:14:29;;;;;;;11.85;1.48;;;;;;;;;;5070220;28;20133;-60
2022/09/20 01:16:57;;;;;;;7.88;1.40;;;;;;;;;;5070216;28;20471;-60
2022/09/20 01:19:32;;;;;;;11.15;1.77;;;;;;;;;;5070325;28;20323;-60
2022/09/20 01:21:59;;;;;;;9.35;1.60;;;;;;;;;;5070546;28;20119;-60
2022/09/20 01:24:36;;;;;;;7.07;2.28;;;;;;;;;;5069671;28;20249;-60
2022/09/20 01:27:12;;;;;;;7.35;1.65;;;;;;;;;;5070265;28;20111;-60
2022/09/20 01:29:50;;;;;;;8.55;1.33;;;;;;;;;;5070587;28;20064;-60
2022/09/20 01:32:19;;;;;;;4.78;1.38;;;;;;;;;;5070306;28;20087;-60
2022/09/20 01:34:46;;;;;;;3.10;0.93;;;;;;;;;;5070394;28;20089;-60
2022/09/20 01:37:27;;;;;;;9.63;1.70;;;;;;;;;;5071002;28;20048;-60
2022/09/20 01:40:10;;;;;;;7.65;1.17;;;;;;;;;;5074473;28;20075;-60
2022/09/20 01:42:36;;;;;;;6.07;1.30;;;;;;;;;;5074444;28;20040;-60
2022/09/20 01:45:08;;;;;;;8.05;1.52;;;;;;;;;;5074063;28;20036;-60
2022/09/20 01:47:52;;;;;;;11.82;1.63;;;;;;;;;;5074391;28;20145;-60
2022/09/20 01:50:27;;;;;;;13.90;1.80;;;;;;;;;;5074344;28;20049;-60
2022/09/20 01:52:53;;;;;;;7.80;1.30;;;;;;;;;;5073461;28;20040;-60
2022/09/20 01:55:31;;;;;;;9.90;1.48;;;;;;;;;;5074003;28;20055;-60
2022/09/20 01:58:05;;;;;;;7.88;1.38;;;;;;;;;;5074074;28;20477;-60
2022/09/20 02:00:37;;;;;;;7.65;1.40;;;;;;;;;;5073825;28;20131;-60
2022/09/20 02:03:12;;;;;;;6.75;1.30;;;;;;;;;;5073851;28;20028;-60
2022/09/20 02:05:38;;;;;;;11.60;2.00;;;;;;;;;;5073938;28;20048;-60
2022/09/20 02:08:08;;;;;;;7.30;1.70;;;;;;;;;;5073443;28;20037;-60
2022/09/20 02:10:40;;;;;;;8.00;1.10;;;;;;;;;;5073501;28;20044;-60
2022/09/20 02:13:29;;;;;;;7.45;1.17;;;;;;;;;;5073863;28;20052;-60
2022/09/20 02:16:04;;;;;;;8.10;1.38;;;;;;;;;;5071799;28;20379;-60
2022/09/20 02:18:49;;;;;;;9.07;1.63;;;;;;;;;;5073691;28;20106;-60
2022/09/20 02:21:36;;;;;;;9.27;1.60;;;;;;;;;;5073728;28;20098;-60
2022/09/20 02:24:20;;;;;;;10.52;1.92;;;;;;;;;;5073174;28;20040;-59
2022/09/20 02:26:55;;;;;;;10.63;1.58;;;;;;;;;;5073597;28;20037;-60
2022/09/20 02:29:41;;;;;;;12.48;1.50;;;;;;;;;;5071645;28;20135;-60
2022/09/20 02:32:19;;;;;;;6.90;1.80;;;;;;;;;;5073148;28;20134;-60
2022/09/20 02:34:48;;;;;;;10.63;1.40;;;;;;;;;;5073475;28;20037;-60
2022/09/20 02:37:20;;;;;;;11.23;1.60;;;;;;;;;;5073064;28;20044;-60
2022/09/20 02:40:03;;;;;;;6.72;1.30;;;;;;;;;;5073553;28;20071;-60
2022/09/20 02:42:32;;;;;;;7.03;1.48;;;;;;;;;;5073060;28;20169;-60
2022/09/20 02:45:02;;;;;;;12.20;1.63;;;;;;;;;;5072766;28;20087;-60
2022/09/20 02:47:36;;;;;;;8.40;1.55;;;;;;;;;;5073148;28;20041;-60
2022/09/20 02:50:14;;;;;;;6.88;1.40;;;;;;;;;;5072499;28;20044;-60
2022/09/20 02:52:59;;;;;;;11.05;1.63;;;;;;;;;;5072848;28;20101;-60
2022/09/20 02:55:25;;;;;;;6.70;1.52;;;;;;;;;;5073015;28;20123;-60
2022/09/20 02:58:12;;;;;;;9.60;1.80;;;;;;;;;;5072840;28;20048;-60
2022/09/20 03:00:59;;;;;;;11.05;1.60;;;;;;;;;;5071743;28;20044;-60
2022/09/20 03:03:31;;;;;;;6.53;1.20;;;;;;;;;;5072817;28;20086;-60
2022/09/20 03:06:16;;;;;;;8.75;1.52;;;;;;;;;;5071298;28;20047;-60
2022/09/20 03:08:54;;;;;;;10.98;1.50;;;;;;;;;;5072551;28;20048;-60
2022/09/20 03:11:32;;;;;;;11.23;1.70;;;;;;;;;;5072494;28;20043;-60
2022/09/20 03:14:21;;;;;;;8.13;1.77;;;;;;;;;;5072455;28;20242;-60
2022/09/20 03:16:55;;;;;;;7.55;1.48;;;;;;;;;;5072465;28;20120;-60
2022/09/20 03:19:24;;;;;;;7.38;1.30;;;;;;;;;;5072516;28;20040;-60
2022/09/20 03:22:05;;;;;;;7.35;1.40;;;;;;;;;;5072206;28;20028;-60
2022/09/20 03:24:55;;;;;;;7.05;1.20;;;;;;;;;;5072046;28;20071;-60
2022/09/20 03:27:22;;;;;;;6.35;1.33;;;;;;;;;;5052164;28;20041;-60
2022/09/20 03:30:03;;;;;;;7.32;1.20;;;;;;;;;;5051942;28;20091;-60
2022/09/20 03:32:35;;;;;;;10.23;1.52;;;;;;;;;;5052386;28;20505;-60
2022/09/20 03:35:20;;;;;;;5.05;1.10;;;;;;;;;;5052299;28;20040;-61
2022/09/20 03:38:06;;;;;;;7.85;1.70;;;;;;;;;;5051903;28;20045;-60
2022/09/20 03:40:38;;;;;;;4.80;1.33;;;;;;;;;;5051931;28;20086;-60
2022/09/20 03:43:09;;;;;;;10.05;1.65;;;;;;;;;;5052007;28;20051;-60
2022/09/20 03:45:38;;;;;;;11.23;1.50;;;;;;;;;;5052299;28;20161;-60
2022/09/20 03:48:20;;;;;;;7.35;1.40;;;;;;;;;;5052173;28;20103;-60
2022/09/20 03:50:54;;;;;;;7.57;1.77;;;;;;;;;;5051698;28;20162;-60
2022/09/20 03:53:26;;;;;;;10.52;1.33;;;;;;;;;;5051949;28;20379;-60
2022/09/20 03:56:11;;;;;;;9.10;1.75;;;;;;;;;;5051921;28;20041;-60
2022/09/20 03:58:55;;;;;;;4.50;1.20;;;;;;;;;;5051528;28;20083;-60
2022/09/20 04:01:24;;;;;;;8.55;1.25;;;;;;;;;;5050837;28;20044;-60
2022/09/20 04:03:50;;;;;;;8.35;1.20;;;;;;;;;;5059495;28;20052;-60
2022/09/20 04:06:24;;;;;;;4.95;1.13;;;;;;;;;;5071293;28;20398;-60
2022/09/20 04:09:04;;;;;;;8.32;1.20;;;;;;;;;;5071027;28;20057;-60
2022/09/20 04:11:49;;;;;;;7.38;1.13;;;;;;;;;;5071598;28;20098;-60
2022/09/20 04:14:33;;;;;;;6.00;1.25;;;;;;;;;;5071144;28;20464;-60
2022/09/20 04:17:14;;;;;;;7.63;1.90;;;;;;;;;;5071491;28;20150;-61
2022/09/20 04:19:52;;;;;;;9.55;2.40;;;;;;;;;;5071286;28;20064;-60
2022/09/20 04:22:20;;;;;;;6.18;1.40;;;;;;;;;;5071126;28;20549;-60
2022/09/20 04:24:53;;;;;;;8.32;1.55;;;;;;;;;;5071359;28;20105;-60
2022/09/20 04:27:39;;;;;;;7.65;1.08;;;;;;;;;;5071219;28;20079;-60
2022/09/20 04:30:19;;;;;;;8.48;1.13;;;;;;;;;;5070879;28;20127;-60
2022/09/20 04:33:04;;;;;;;9.57;1.25;;;;;;;;;;5071233;28;20520;-60
2022/09/20 04:38:16;;;;;;;7.47;1.58;;;;;;;;;;5071257;28;20040;-61
2022/09/20 04:40:59;;;;;;;7.30;1.20;;;;;;;;;;5071216;28;20064;-61
2022/09/20 04:43:51;;;;;;;6.15;1.25;;;;;;;;;;5070728;28;20116;-61
2022/09/20 04:46:35;;;;;;;6.55;1.23;;;;;;;;;;5071332;28;20051;-61
2022/09/20 04:49:04;;;;;;;5.53;1.15;;;;;;;;;;5069692;28;20055;-61
2022/09/20 04:51:50;;;;;;;6.88;1.35;;;;;;;;;;5070449;28;20067;-61
2022/09/20 04:54:48;;;;;;;6.07;1.10;;;;;;;;;;5069588;28;20134;-61
2022/09/20 04:57:26;;;;;;;6.80;1.38;;;;;;;;;;5068698;28;20098;-60
2022/09/20 05:00:12;;;;;;;3.88;1.10;;;;;;;;;;5070279;28;20040;-60
2022/09/20 05:02:40;;;;;;;5.82;1.58;;;;;;;;;;5070804;28;20039;-60
2022/09/20 05:05:23;;;;;;;5.20;1.60;;;;;;;;;;5063835;28;20044;-60
2022/09/20 05:08:07;;;;;;;6.40;1.52;;;;;;;;;;5070082;28;20140;-60
2022/09/20 05:10:51;;;;;;;4.95;1.33;;;;;;;;;;5069735;28;20052;-60
2022/09/20 05:13:37;;;;;;;8.30;1.58;;;;;;;;;;5070070;28;20127;-61
2022/09/20 05:16:05;;;;;;;5.32;1.08;;;;;;;;;;5068306;28;20052;-61
2022/09/20 05:18:33;;;;;;;3.35;1.33;;;;;;;;;;5069938;28;20041;-60
2022/09/20 05:21:02;;;;;;;6.97;1.17;;;;;;;;;;5069738;28;20048;-60
2022/09/20 05:23:31;;;;;;;6.85;1.45;;;;;;;;;;5069932;28;20086;-60
2022/09/20 05:26:07;;;;;;;5.97;1.20;;;;;;;;;;5070397;28;20107;-60
2022/09/20 05:28:45;;;;;;;7.55;1.30;;;;;;;;;;5069294;28;20043;-60
2022/09/20 05:31:15;;;;;;;7.72;1.17;;;;;;;;;;5070248;28;20047;-60
2022/09/20 05:33:56;;;;;;;3.83;1.42;;;;;;;;;;5070019;28;20037;-60
2022/09/20 05:36:39;;;;;;;6.38;1.20;;;;;;;;;;5069430;28;20432;-61
2022/09/20 05:39:24;;;;;;;7.60;1.35;;;;;;;;;;5070006;28;20052;-60
2022/09/20 05:41:57;;;;;;;10.48;1.55;;;;;;;;;;5069312;28;20043;-61
2022/09/20 05:44:50;;;;;;;8.20;1.45;;;;;;;;;;5070228;28;20037;-61
2022/09/20 05:47:18;;;;;;;4.93;1.30;;;;;;;;;;5069762;28;20037;-61
2022/09/20 05:50:03;;;;;;;4.72;1.48;;;;;;;;;;5069316;28;20360;-60
2022/09/20 05:52:38;;;;;;;6.32;1.45;;;;;;;;;;5070219;28;20051;-61
2022/09/20 05:55:04;;;;;;;6.32;1.27;;;;;;;;;;5069647;28;20195;-60
2022/09/20 05:57:33;;;;;;;6.07;1.45;;;;;;;;;;5068686;28;20116;-60
2022/09/20 06:00:19;;;;;;;4.90;1.35;;;;;;;;;;5068839;28;20047;-61
2022/09/20 06:02:45;;;;;;;7.25;1.67;;;;;;;;;;5049421;28;20071;-61
2022/09/20 06:05:26;;;;;;;3.70;1.02;;;;;;;;;;5068713;28;20076;-61
2022/09/20 06:08:02;;;;;;;6.57;1.17;;;;;;;;;;5068966;28;20403;-61
2022/09/20 06:10:38;;;;;;;5.75;1.58;;;;;;;;;;5069522;28;20186;-61
2022/09/20 06:13:23;;;;;;;4.93;1.70;;;;;;;;;;5068503;28;20036;-61
2022/09/20 06:16:05;;;;;;;5.80;1.45;;;;;;;;;;5069584;28;20128;-61
2022/09/20 06:18:40;;;;;;;11.80;1.38;;;;;;;;;;5063693;28;20093;-61
2022/09/20 06:21:16;;;;;;;6.25;1.35;;;;;;;;;;5068420;28;20162;-60
2022/09/20 06:23:43;;;;;;;5.65;1.30;;;;;;;;;;5068297;28;20091;-59
2022/09/20 06:26:13;;;;;;;3.92;1.10;;;;;;;;;;5071066;28;20095;-61
2022/09/20 06:28:45;;;;;;;5.20;1.20;;;;;;;;;;5072222;28;20774;-61
2022/09/20 06:31:11;;;;;;;7.97;1.88;;;;;;;;;;5072054;28;20119;-61
2022/09/20 06:33:49;;;;;;;7.63;1.77;;;;;;;;;;5071298;28;20052;-60
2022/09/20 06:41:57;;;;;;;6.50;1.67;;;;;;;;;;5053171;28;20037;-60
2022/09/20 06:44:23;;;;;;;8.90;1.95;;;;;;;;;;5071284;28;20094;-60
2022/09/20 06:46:52;;;;;;;7.88;1.73;;;;;;;;;;5071857;28;20051;-62
2022/09/20 06:49:18;;;;;;;7.45;1.50;;;;;;;;;;5071132;28;20040;-60
2022/09/20 06:51:44;;;;;;;8.65;1.85;;;;;;;;;;5070860;28;20120;-59
2022/09/20 06:54:14;;;;;;;11.23;1.42;;;;;;;;;;5071877;28;20040;-60
2022/09/20 06:56:40;;;;;;;4.53;1.58;;;;;;;;;;5069950;28;20036;-61
2022/09/20 06:59:10;;;;;;;6.88;1.73;;;;;;;;;;5072091;28;20041;-60
2022/09/20 07:01:36;;;;;;;8.23;2.30;;;;;;;;;;5071036;28;20407;-59
2022/09/20 07:04:05;;;;;;;9.13;2.22;;;;;;;;;;5070121;28;20115;-60
2022/09/20 07:06:32;;;;;;;4.40;1.50;;;;;;;;;;5070371;28;20506;-60
2022/09/20 07:08:58;;;;;;;8.55;2.33;;;;;;;;;;5071339;28;20728;-61
2022/09/20 07:11:24;;;;;;;9.57;2.22;;;;;;;;;;5070325;28;20083;-60
2022/09/20 07:13:51;;;;;;;4.75;1.65;;;;;;;;;;5070234;28;20052;-59
2022/09/20 07:16:17;;;;;;;5.97;1.80;;;;;;;;;;5069852;28;20036;-60
2022/09/20 07:18:43;;;;;;;8.10;1.65;;;;;;;;;;5070503;28;20044;-59
2022/09/20 07:21:13;;;;;;;8.63;2.25;;;;;;;;;;5070556;28;20120;-59
2022/09/20 07:23:39;;;;;;;9.13;1.77;;;;;;;;;;5067594;28;20511;-60
2022/09/20 07:26:06;;;;;;;6.15;1.63;;;;;;;;;;5069087;28;20036;-59
2022/09/20 07:28:33;;;;;;;6.65;1.55;;;;;;;;;;5069935;28;20150;-59
2022/09/20 07:31:00;;;;;;;7.93;1.60;;;;;;;;;;5071053;28;20128;-60
2022/09/20 07:33:26;;;;;;;6.85;1.85;;;;;;;;;;5069380;28;20406;-59
2022/09/20 07:35:53;;;;;;;10.88;1.95;;;;;;;;;;5069873;28;20043;-58
2022/09/20 07:38:19;;;;;;;7.82;2.22;;;;;;;;;;5051909;28;20044;-59
2022/09/20 07:40:46;;;;;;;7.60;1.80;;;;;;;;;;5070041;28;20040;-58
2022/09/20 07:43:12;;;;;;;7.95;1.77;;;;;;;;;;5069953;28;20090;-59
2022/09/20 07:45:38;;;;;;;5.25;1.60;;;;;;;;;;5069100;28;20726;-59
2022/09/20 07:48:08;;;;;;;8.18;1.70;;;;;;;;;;5069731;28;20044;-60
2022/09/20 07:50:34;;;;;;;6.93;1.42;;;;;;;;;;5069896;28;20044;-60
2022/09/20 07:53:02;;;;;;;6.72;1.45;;;;;;;;;;5070218;28;20068;-60
2022/09/20 07:55:29;;;;;;;9.48;1.15;;;;;;;;;;5068970;28;20534;-58
2022/09/20 07:57:56;;;;;;;7.13;1.60;;;;;;;;;;5069737;28;20040;-59
2022/09/20 08:00:22;;;;;;;9.45;1.20;;;;;;;;;;5070188;28;20036;-60
2022/09/20 08:02:48;;;;;;;6.88;1.00;;;;;;;;;;5069221;28;20428;-60
2022/09/20 08:05:14;;;;;;;4.63;1.13;;;;;;;;;;5068830;28;20155;-60
2022/09/20 08:07:40;;;;;;;9.60;1.20;;;;;;;;;;5069089;28;20072;-60
2022/09/20 08:10:06;;;;;;;6.70;0.95;;;;;;;;;;5068632;28;20063;-61
2022/09/20 08:12:32;;;;;;;7.32;1.40;;;;;;;;;;5069826;28;20826;-60
2022/09/20 08:15:00;;;;;;;6.32;1.85;;;;;;;;;;5069434;28;20729;-60
2022/09/20 08:17:27;;;;;;;6.20;0.93;;;;;;;;;;5068104;28;20048;-60
2022/09/20 08:19:53;;;;;;;10.77;1.27;;;;;;;;;;5068452;28;20040;-60
2022/09/20 08:22:19;;;;;;;4.93;1.10;;;;;;;;;;5069385;28;20491;-60
2022/09/20 08:24:45;;;;;;;7.88;1.00;;;;;;;;;;5069877;28;20036;-60
2022/09/20 08:27:12;;;;;;;4.68;0.80;;;;;;;;;;5068434;28;20120;-60
2022/09/20 08:29:39;;;;;;;6.28;1.20;;;;;;;;;;5069795;28;20048;-60
2022/09/20 08:32:05;;;;;;;7.10;1.33;;;;;;;;;;5069165;28;20048;-60
2022/09/20 08:34:31;;;;;;;6.88;1.10;;;;;;;;;;5069377;28;20048;-61
2022/09/20 08:36:58;;;;;;;4.88;0.80;;;;;;;;;;5070399;28;20033;-61
2022/09/20 08:39:25;;;;;;;5.20;1.10;;;;;;;;;;5068294;28;20045;-61
2022/09/20 08:41:51;;;;;;;8.05;1.33;;;;;;;;;;5069845;28;20076;-61
2022/09/20 08:44:24;;;;;;;5.03;1.00;;;;;;;;;;5069567;28;20402;-60
2022/09/20 08:46:55;;;;;;;10.05;1.52;;;;;;;;;;5068731;28;20502;-60
2022/09/20 08:49:27;;;;;;;6.20;1.08;;;;;;;;;;5069079;28;20048;-60
2022/09/20 08:51:57;;;;;;;5.72;1.27;;;;;;;;;;5068890;28;20071;-60
2022/09/20 08:54:24;;;;;;;3.65;0.90;;;;;;;;;;5069077;28;20124;-61
2022/09/20 08:56:50;;;;;;;4.13;1.27;;;;;;;;;;5067679;28;20075;-60
2022/09/20 08:59:20;;;;;;;8.48;1.23;;;;;;;;;;5068313;28;20033;-60
2022/09/20 09:01:47;;;;;;;6.18;0.80;;;;;;;;;;5068312;28;20037;-60
2022/09/20 09:04:13;;;;;;;5.72;0.82;;;;;;;;;;5069468;28;20631;-60
2022/09/20 09:06:39;;;;;;;4.70;0.90;;;;;;;;;;5068485;28;20499;-60
2022/09/20 09:09:06;;;;;;;5.72;0.85;;;;;;;;;;5068266;28;20048;-60
2022/09/20 09:11:33;;;;;;;7.40;1.42;;;;;;;;;;5068780;28;20056;-61
2022/09/20 09:14:03;;;;;;;3.25;0.82;;;;;;;;;;5064544;28;20040;-60
2022/09/20 09:16:30;;;;;;;5.72;0.98;;;;;;;;;;5068866;28;20501;-59
2022/09/20 09:18:57;;;;;;;8.35;0.80;;;;;;;;;;5068264;28;20490;-62
2022/09/20 09:21:30;;;;;;;11.88;1.00;;;;;;;;;;5068108;28;20060;-61
2022/09/20 09:24:04;;;;;;;5.80;1.05;;;;;;;;;;5066603;28;20051;-60
2022/09/20 09:26:37;;;;;;;4.15;0.80;;;;;;;;;;5067503;28;20038;-62
2022/09/20 09:29:12;;;;;;;7.10;0.80;;;;;;;;;;5072809;28;20040;-62
2022/09/20 09:31:38;;;;;;;10.48;0.85;;;;;;;;;;5067712;28;20047;-61
2022/09/20 09:34:05;;;;;;;10.32;1.05;;;;;;;;;;5066259;28;20044;-62
2022/09/20 09:36:31;;;;;;;9.25;0.80;;;;;;;;;;5066636;28;20139;-62
2022/09/20 09:39:18;;;;;;;5.90;0.77;;;;;;;;;;5067962;28;20082;-63
2022/09/20 09:41:45;;;;;;;6.35;0.85;;;;;;;;;;5068426;28;20040;-62
2022/09/20 09:44:22;;;;;;;5.60;1.00;;;;;;;;;;5061662;28;20063;-63
2022/09/20 09:46:52;;;;;;;7.00;1.10;;;;;;;;;;5066554;28;20059;-62
2022/09/20 09:49:20;;;;;;;5.72;0.90;;;;;;;;;;5065992;28;20049;-63
2022/09/20 09:51:55;;;;;;;5.22;0.82;;;;;;;;;;5067021;28;20041;-62
2022/09/20 09:54:27;;;;;;;6.28;0.80;;;;;;;;;;5065000;28;20119;-64
2022/09/20 09:56:59;;;;;;;4.97;0.80;;;;;;;;;;5065243;28;20366;-64
2022/09/20 09:59:34;;;;;;;5.15;1.00;;;;;;;;;;5068482;28;20491;-63
2022/09/20 10:02:10;;;;;;;8.35;1.25;;;;;;;;;;5071603;28;20036;-62
2022/09/20 10:04:36;;;;;;;4.50;0.80;;;;;;;;;;5069317;28;20111;-63
2022/09/20 10:07:11;;;;;;;5.57;0.88;;;;;;;;;;5071924;28;20467;-62
2022/09/20 10:09:48;;;;;;;6.00;1.02;;;;;;;;;;5070658;28;20514;-62
2022/09/20 10:12:35;;;;;;;6.70;1.20;;;;;;;;;;5069507;28;20045;-62
2022/09/20 10:15:09;;;;;;;4.22;1.00;;;;;;;;;;5070174;28;20058;-64
2022/09/20 10:17:35;;;;;;;9.13;1.48;;;;;;;;;;5068506;28;20036;-63
2022/09/20 10:20:02;;;;;;;7.32;1.05;;;;;;;;;;5070718;28;20035;-64
2022/09/20 10:22:32;;;;;;;3.00;0.95;;;;;;;;;;5067441;28;20047;-63
2022/09/20 10:25:09;;;;;;;6.57;0.70;;;;;;;;;;5069451;28;20041;-63
2022/09/20 10:27:41;;;;;;;5.25;0.90;;;;;;;;;;5069447;28;20040;-63
2022/09/20 10:30:08;;;;;;;4.13;0.73;;;;;;;;;;5070838;28;20036;-64
2022/09/20 10:32:44;;;;;;;5.78;0.90;;;;;;;;;;5065111;28;20048;-62
2022/09/20 10:35:19;;;;;;;5.65;0.55;;;;;;;;;;5070115;28;20131;-61
2022/09/20 10:38:04;;;;;;;3.22;0.80;;;;;;;;;;5073709;28;20028;-63
2022/09/20 10:43:46;;;;;;;2.90;0.88;;;;;;;;;;5066114;28;20121;-63
2022/09/20 10:46:18;;;;;;;3.55;0.80;;;;;;;;;;5071230;28;20056;-63
2022/09/20 10:48:51;;;;;;;4.57;0.70;;;;;;;;;;5065588;28;20114;-63
2022/09/20 10:51:26;;;;;;;6.65;1.30;;;;;;;;;;5070344;28;20097;-64
2022/09/20 10:53:59;;;;;;;2.85;1.05;;;;;;;;;;5065601;28;20150;-64
2022/09/20 10:56:39;;;;;;;4.15;1.20;;;;;;;;;;5064948;28;20491;-62
2022/09/20 10:59:11;;;;;;;4.57;1.45;;;;;;;;;;5065077;28;20036;-64
2022/09/20 11:01:49;;;;;;;3.10;0.95;;;;;;;;;;5070710;28;20047;-65
2022/09/20 11:04:15;;;;;;;4.78;1.02;;;;;;;;;;5070987;28;20127;-62
2022/09/20 11:07:01;;;;;;;4.38;1.23;;;;;;;;;;5071546;28;20466;-63
2022/09/20 11:09:31;;;;;;;5.18;0.82;;;;;;;;;;5070867;28;20060;-64
2022/09/20 11:12:21;;;;;;;4.18;0.85;;;;;;;;;;5070135;28;20080;-64
2022/09/20 11:15:11;;;;;;;4.25;0.60;;;;;;;;;;5065916;28;20051;-63
2022/09/20 11:17:40;;;;;;;5.22;0.80;;;;;;;;;;5068087;28;20048;-63
2022/09/20 11:20:21;;;;;;;3.97;0.70;;;;;;;;;;5070801;28;20037;-63
2022/09/20 11:23:08;;;;;;;5.53;1.08;;;;;;;;;;5035435;28;20430;-63
2022/09/20 11:25:38;;;;;;;3.20;1.02;;;;;;;;;;5069712;28;20513;-63
2022/09/20 11:28:13;;;;;;;7.03;0.98;;;;;;;;;;5070166;28;20036;-63
2022/09/20 11:30:56;;;;;;;7.38;0.95;;;;;;;;;;5071490;28;20467;-63
2022/09/20 11:33:23;;;;;;;;;;;;;;;;;;5071408;28;20398;-63
2022/09/20 11:35:54;;;;;;;5.50;0.93;;;;;;;;;;5070269;28;19931;-63
2022/09/20 11:38:23;;;;;;;4.97;0.73;;;;;;;;;;5070540;28;20124;-63
2022/09/20 11:40:52;;;;;;;4.45;0.85;;;;;;;;;;5070091;28;20044;-63
2022/09/20 11:43:19;;;;;;;6.38;0.90;;;;;;;;;;5070704;28;20041;-63
2022/09/20 11:45:47;;;;;;;6.70;1.00;;;;;;;;;;5067440;28;20442;-63
2022/09/20 11:48:20;;;;;;;7.03;1.17;;;;;;;;;;5070924;28;20086;-63
2022/09/20 11:50:46;;;;;;;8.65;1.17;;;;;;;;;;5066958;28;20040;-63
2022/09/20 11:53:20;;;;;;;3.90;0.95;;;;;;;;;;5070170;28;20123;-64
2022/09/20 11:55:57;;;;;;;3.63;1.02;;;;;;;;;;5069509;28;20035;-64
2022/09/20 11:58:26;;;;;;;7.45;0.80;;;;;;;;;;5063952;28;20650;-64
2022/09/20 12:00:53;;;;;;;6.30;0.80;;;;;;;;;;5069742;28;20085;-63
2022/09/20 12:03:28;;;;;;;5.50;1.00;;;;;;;;;;5067239;28;20037;-64
2022/09/20 12:05:56;;;;;;;3.50;0.85;;;;;;;;;;5069652;28;20145;-62
2022/09/20 12:08:25;;;;;;;3.58;1.08;;;;;;;;;;5068178;28;20123;-62
2022/09/20 12:11:11;;;;;;;2.67;0.60;;;;;;;;;;5070190;28;20307;-63
2022/09/20 12:13:38;;;;;;;1.77;0.60;;;;;;;;;;5068014;28;20044;-63
2022/09/20 12:16:13;;;;;;;6.63;1.25;;;;;;;;;;5071011;28;20483;-62
2022/09/20 12:18:52;;;;;;;5.03;0.60;;;;;;;;;;5070138;28;20083;-62
2022/09/20 12:21:20;;;;;;;6.55;0.93;;;;;;;;;;5065682;28;20662;-63
2022/09/20 12:23:59;;;;;;;3.35;0.77;;;;;;;;;;5069673;28;20636;-62
2022/09/20 12:26:25;;;;;;;6.63;0.80;;;;;;;;;;5071475;28;20082;-62
2022/09/20 12:28:52;;;;;;;3.85;0.85;;;;;;;;;;5065175;28;20101;-62
2022/09/20 12:31:19;;;;;;;4.78;1.10;;;;;;;;;;5075789;28;20044;-63
2022/09/20 12:33:56;;;;;;;5.18;0.98;;;;;;;;;;5078094;28;20120;-62
2022/09/20 12:36:23;;;;;;;6.13;0.70;;;;;;;;;;5068814;28;20037;-62
2022/09/20 12:39:12;;;;;;;7.47;1.08;;;;;;;;;;5052170;28;20040;-63
2022/09/20 12:41:47;;;;;;;8.18;0.90;;;;;;;;;;5069098;28;20060;-63
2022/09/20 12:44:31;;;;;;;5.60;0.60;;;;;;;;;;5068963;28;20115;-62
2022/09/20 12:47:17;;;;;;;6.22;0.80;;;;;;;;;;5051981;28;20051;-62
2022/09/20 12:52:49;;;;;;;5.65;1.05;;;;;;;;;;5068492;28;20075;-63
2022/09/20 12:55:35;;;;;;;4.93;0.90;;;;;;;;;;5067723;28;20585;-62
2022/09/20 12:58:04;;;;;;;3.72;0.80;;;;;;;;;;5066387;28;20399;-61
2022/09/20 13:00:35;;;;;;;3.28;0.70;;;;;;;;;;5062903;28;20032;-64
2022/09/20 13:03:10;;;;;;;5.07;1.17;;;;;;;;;;5068704;28;20037;-63
2022/09/20 13:05:38;;;;;;;5.03;0.80;;;;;;;;;;5065541;28;20372;-62
2022/09/20 13:08:22;;;;;;;4.05;0.70;;;;;;;;;;5067250;28;20033;-63
2022/09/20 13:10:57;;;;;;;3.03;0.80;;;;;;;;;;5066100;28;20487;-62
2022/09/20 13:13:40;;;;;;;4.13;1.33;;;;;;;;;;5068401;28;20570;-62
2022/09/20 13:16:06;;;;;;;4.80;0.85;;;;;;;;;;5073453;28;20040;-62
2022/09/20 13:18:34;;;;;;;3.15;0.77;;;;;;;;;;5070240;28;20047;-63
2022/09/20 13:21:05;;;;;;;5.45;0.80;;;;;;;;;;5068461;28;20047;-61
2022/09/20 13:23:33;;;;;;;3.42;0.60;;;;;;;;;;5064694;28;20462;-61
2022/09/20 13:26:01;;;;;;;6.63;0.80;;;;;;;;;;5073371;28;20073;-62
2022/09/20 13:28:30;;;;;;;3.70;0.88;;;;;;;;;;5062803;28;20089;-61
2022/09/20 13:31:14;;;;;;;7.45;0.93;;;;;;;;;;5065932;28;20513;-61
2022/09/20 13:33:40;;;;;;;4.05;0.65;;;;;;;;;;5069875;28;20047;-61
2022/09/20 13:36:07;;;;;;;3.25;0.70;;;;;;;;;;5072826;28;20041;-60
2022/09/20 13:38:33;;;;;;;1.73;0.30;;;;;;;;;;5071188;28;20048;-61
2022/09/20 13:41:09;;;;;;;4.50;0.60;;;;;;;;;;5072849;28;20068;-62
2022/09/20 13:43:43;;;;;;;4.75;0.65;;;;;;;;;;5070960;28;20115;-61
2022/09/20 13:46:15;;;;;;;3.42;0.52;;;;;;;;;;5073267;28;20647;-62
2022/09/20 13:48:41;;;;;;;3.97;0.50;;;;;;;;;;5071372;28;20093;-62
2022/09/20 13:51:22;;;;;;;3.05;0.50;;;;;;;;;;5072117;28;20093;-62
2022/09/20 13:53:48;;;;;;;2.28;0.40;;;;;;;;;;5071867;28;20032;-63
2022/09/20 13:56:27;;;;;;;1.95;0.65;;;;;;;;;;5070998;28;20120;-63
2022/09/20 13:58:55;;;;;;;4.97;0.80;;;;;;;;;;5070642;28;20095;-62
2022/09/20 14:01:27;;;;;;;2.95;0.60;;;;;;;;;;5071696;28;20036;-63
2022/09/20 14:03:54;;;;;;;2.85;0.60;;;;;;;;;;5073034;28;20032;-62
2022/09/20 14:06:25;;;;;;;3.47;0.47;;;;;;;;;;5073403;28;20033;-62
2022/09/20 14:08:52;;;;;;;1.83;0.40;;;;;;;;;;5067472;28;20064;-62
2022/09/20 14:11:19;;;;;;;3.45;0.80;;;;;;;;;;5073226;28;20510;-61
2022/09/20 14:13:49;;;;;;;3.92;0.65;;;;;;;;;;5072753;28;20447;-60
2022/09/20 14:16:17;;;;;;;3.83;0.60;;;;;;;;;;5079174;28;20037;-63
2022/09/20 14:18:45;;;;;;;4.35;0.65;;;;;;;;;;5073314;28;20041;-62
2022/09/20 14:21:12;;;;;;;4.55;0.60;;;;;;;;;;5072565;28;20115;-62
2022/09/20 14:23:56;;;;;;;2.45;0.57;;;;;;;;;;5073516;28;20049;-63
2022/09/20 14:26:23;;;;;;;4.97;0.77;;;;;;;;;;5073110;28;20116;-63
2022/09/20 14:28:49;;;;;;;3.10;0.65;;;;;;;;;;5072654;28;20044;-63
2022/09/20 14:31:23;;;;;;;2.80;0.63;;;;;;;;;;5072748;28;20051;-62
2022/09/20 14:33:51;;;;;;;2.80;0.50;;;;;;;;;;5072075;28;20071;-63
2022/09/20 14:36:19;;;;;;;3.03;0.50;;;;;;;;;;5072994;28;20441;-63
2022/09/20 14:38:47;;;;;;;5.75;0.80;;;;;;;;;;5073243;28;20510;-63
2022/09/20 14:41:13;;;;;;;3.50;0.65;;;;;;;;;;5072705;28;20044;-63
2022/09/20 14:43:41;;;;;;;4.88;0.60;;;;;;;;;;5072644;28;20040;-63
2022/09/20 14:46:16;;;;;;;3.55;0.63;;;;;;;;;;5072123;28;20047;-63
2022/09/20 14:48:44;;;;;;;1.65;0.47;;;;;;;;;;5072656;28;20503;-63
2022/09/20 14:51:24;;;;;;;3.67;0.50;;;;;;;;;;5072316;28;20051;-63
2022/09/20 14:54:05;;;;;;;3.63;0.57;;;;;;;;;;5073106;28;20048;-63
2022/09/20 14:56:35;;;;;;;3.13;0.40;;;;;;;;;;5072707;28;20071;-62
2022/09/20 14:59:06;;;;;;;3.05;0.70;;;;;;;;;;5072490;28;20424;-62
2022/09/20 15:01:34;;;;;;;7.50;1.13;;;;;;;;;;5072836;28;20070;-62
2022/09/20 15:04:05;;;;;;;5.50;0.93;;;;;;;;;;5072401;28;20040;-63
2022/09/20 15:06:31;;;;;;;2.38;0.85;;;;;;;;;;5072346;28;20514;-63
2022/09/20 15:08:59;;;;;;;4.90;0.75;;;;;;;;;;5072584;28;20060;-63
2022/09/20 15:11:28;;;;;;;4.10;0.90;;;;;;;;;;5072484;28;20094;-63
2022/09/20 15:13:54;;;;;;;3.80;0.73;;;;;;;;;;5072858;28;20040;-63
2022/09/20 15:16:20;;;;;;;3.55;0.63;;;;;;;;;;5072859;28;20044;-63
2022/09/20 15:18:46;;;;;;;3.95;0.82;;;;;;;;;;5071894;28;20032;-63
2022/09/20 15:21:12;;;;;;;4.03;0.75;;;;;;;;;;5072532;28;20465;-63
2022/09/20 15:23:39;;;;;;;3.67;0.60;;;;;;;;;;5071122;28;20044;-63
2022/09/20 15:26:07;;;;;;;5.82;0.70;;;;;;;;;;5072383;28;20529;-63
2022/09/20 15:28:34;;;;;;;4.20;0.88;;;;;;;;;;5072203;28;20044;-63